Time;durP1;ratioP1;P1;durP2;ratioP2;P2;SDS_P1;SDS_P2;PMS_P1;PMS_P2;Temp;Humidity;BMP_temperature;BMP_pressure;BME280_temperature;BME280_humidity;BME280_pressure;Samples;Min_cycle;Max_cycle;Signal;HPM_P1;HPM_P2
2022/05/19 00:00:36;;;;;;;;;;;;;;;22.41;35.86;101852.53;2091336;28;795;-54
2022/05/19 00:01:36;;;;;;;;;;;;;;;22.41;35.88;101848.94;2091273;28;803;-54
2022/05/19 00:02:36;;;;;;;;;;;;;;;22.40;35.21;101848.06;2091921;28;894;-54
2022/05/19 00:03:37;;;;;;;;;;;;;;;22.40;35.26;101842.66;2091886;28;985;-55
2022/05/19 00:04:38;;;;;;;;;;;;;;;22.39;35.44;101843.59;2091865;28;846;-55
2022/05/19 00:05:38;;;;;;;;;;;;;;;22.39;35.69;101848.09;2091916;28;847;-54
2022/05/19 00:06:38;;;;;;;;;;;;;;;22.39;35.94;101846.28;2091869;28;787;-54
2022/05/19 00:07:38;;;;;;;;;;;;;;;22.40;35.91;101844.47;2091872;28;1031;-54
2022/05/19 00:08:39;;;;;;;;;;;;;;;22.38;35.21;101846.31;2091864;28;1154;-54
2022/05/19 00:09:39;;;;;;;;;;;;;;;22.37;35.33;101850.84;2091887;28;981;-54
2022/05/19 00:10:39;;;;;;;;;;;;;;;22.36;35.63;101852.69;2091857;28;1028;-55
2022/05/19 00:11:40;;;;;;;;;;;;;;;22.37;35.54;101853.53;2091825;28;980;-54
2022/05/19 00:12:41;;;;;;;;;;;;;;;22.35;36.12;101841.91;2091815;28;1000;-55
2022/05/19 00:13:41;;;;;;;;;;;;;;;22.34;35.42;101845.53;2091870;28;1095;-54
2022/05/19 00:14:41;;;;;;;;;;;;;;;22.34;35.64;101849.13;2091841;28;779;-54
2022/05/19 00:15:41;;;;;;;;;;;;;;;22.34;35.77;101845.53;2091846;28;905;-54
2022/05/19 00:16:42;;;;;;;;;;;;;;;22.33;35.75;101844.66;2090904;28;1910;-54
2022/05/19 00:17:42;;;;;;;;;;;;;;;22.33;35.63;101849.16;2091302;28;851;-54
2022/05/19 00:18:42;;;;;;;;;;;;;;;22.33;36.09;101850.06;2091831;28;977;-54
2022/05/19 00:19:42;;;;;;;;;;;;;;;22.32;36.23;101850.06;2091789;28;817;-54
2022/05/19 00:20:43;;;;;;;;;;;;;;;22.32;35.79;101844.66;2091753;28;1028;-54
2022/05/19 00:21:43;;;;;;;;;;;;;;;22.32;36.17;101844.66;2091815;28;1021;-54
2022/05/19 00:22:43;;;;;;;;;;;;;;;22.33;35.65;101841.03;2091798;28;791;-54
2022/05/19 00:23:43;;;;;;;;;;;;;;;22.34;35.79;101843.72;2091787;28;997;-55
2022/05/19 00:24:43;;;;;;;;;;;;;;;22.34;35.64;101843.72;2091168;28;1410;-54
2022/05/19 00:25:44;;;;;;;;;;;;;;;22.35;35.62;101842.81;2091215;28;1017;-54
2022/05/19 00:26:44;;;;;;;;;;;;;;;22.36;35.57;101840.97;2082964;28;835;-54
2022/05/19 00:27:44;;;;;;;;;;;;;;;22.35;35.45;101850.91;2082950;28;918;-54
2022/05/19 00:28:44;;;;;;;;;;;;;;;22.34;36.27;101848.22;2091676;28;1048;-54
2022/05/19 00:29:45;;;;;;;;;;;;;;;22.33;35.65;101844.66;2091665;28;775;-55
2022/05/19 00:30:45;;;;;;;;;;;;;;;22.33;36.36;101839.25;2091720;28;995;-54
2022/05/19 00:31:45;;;;;;;;;;;;;;;22.32;35.51;101842.88;2091672;28;863;-55
2022/05/19 00:32:45;;;;;;;;;;;;;;;22.33;35.58;101838.34;2091683;28;764;-54
2022/05/19 00:33:45;;;;;;;;;;;;;;;22.32;36.33;101841.97;2091033;28;914;-54
2022/05/19 00:34:46;;;;;;;;;;;;;;;22.30;35.58;101836.63;2091098;28;981;-54
2022/05/19 00:35:46;;;;;;;;;;;;;;;22.30;36.12;101838.44;2082820;28;860;-54
2022/05/19 00:36:46;;;;;;;;;;;;;;;22.30;35.66;101836.63;2082813;28;1913;-54
2022/05/19 00:37:46;;;;;;;;;;;;;;;22.30;35.62;101847.44;2091554;28;1199;-54
2022/05/19 00:38:47;;;;;;;;;;;;;;;22.30;35.92;101839.31;2091615;28;756;-54
2022/05/19 00:39:47;;;;;;;;;;;;;;;22.30;35.93;101842.03;2091625;28;953;-54
2022/05/19 00:40:48;;;;;;;;;;;;;;;22.31;35.59;101834.81;2091750;28;1020;-54
2022/05/19 00:42:43;;;;;;;;;;;;;;;22.31;35.83;101835.72;2091625;28;846;-54
2022/05/19 00:43:09;;;;;;;;;;;;;;;22.31;35.66;101835.72;2091570;28;1141;-54
2022/05/19 00:44:09;;;;;;;;;;;;;;;22.31;35.90;101833.00;2091682;28;983;-54
2022/05/19 00:45:11;;;;;;;;;;;;;;;22.31;36.45;101835.72;2091654;28;984;-56
2022/05/19 00:46:14;;;;;;;;;;;;;;;22.30;36.25;101828.53;2091600;28;1001;-54
2022/05/19 00:47:19;;;;;;;;;;;;;;;22.30;36.17;101828.53;2091629;28;767;-55
2022/05/19 00:48:22;;;;;;;;;;;;;;;22.29;35.66;101832.16;2091712;28;826;-54
2022/05/19 00:49:28;;;;;;;;;;;;;;;22.28;35.99;101826.78;2091602;28;1000;-54
2022/05/19 00:50:35;;;;;;;;;;;;;;;22.28;35.73;101830.38;2091585;28;1039;-54
2022/05/19 00:51:50;;;;;;;;;;;;;;;22.27;36.00;101827.69;2091613;28;1051;-54
2022/05/19 00:52:53;;;;;;;;;;;;;;;22.28;35.90;101830.38;2091515;28;1741;-54
2022/05/19 00:53:54;;;;;;;;;;;;;;;22.28;35.77;101829.47;2090973;28;977;-54
2022/05/19 00:55:01;;;;;;;;;;;;;;;22.28;36.13;101827.69;2091055;28;1000;-54
2022/05/19 00:56:05;;;;;;;;;;;;;;;22.27;35.93;101825.00;2091613;28;799;-54
2022/05/19 00:57:08;;;;;;;;;;;;;;;22.27;36.19;101828.59;2091430;28;2008;-54
2022/05/19 00:58:15;;;;;;;;;;;;;;;22.28;35.81;101830.38;2091565;28;945;-54
2022/05/19 00:59:21;;;;;;;;;;;;;;;22.28;35.58;101824.06;2091629;28;1090;-54
2022/05/19 01:00:22;;;;;;;;;;;;;;;22.28;36.12;101821.38;2091421;28;1218;-54
2022/05/19 01:01:22;;;;;;;;;;;;;;;22.26;35.75;101829.53;2091571;28;1440;-54
2022/05/19 01:02:24;;;;;;;;;;;;;;;22.26;35.90;101825.94;2091553;28;704;-54
2022/05/19 01:03:26;;;;;;;;;;;;;;;22.26;35.79;101824.13;2090890;28;1328;-54
2022/05/19 01:04:32;;;;;;;;;;;;;;;22.25;35.85;101835.84;2090960;28;783;-55
2022/05/19 01:05:42;;;;;;;;;;;;;;;22.26;35.91;101824.13;2091511;28;803;-54
2022/05/19 01:06:43;;;;;;;;;;;;;;;22.24;35.91;101831.38;2091531;28;1000;-54
2022/05/19 01:07:43;;;;;;;;;;;;;;;22.25;36.26;101835.84;2091470;28;787;-54
2022/05/19 01:08:57;;;;;;;;;;;;;;;22.26;36.40;101836.72;2091485;28;869;-55
2022/05/19 01:09:58;;;;;;;;;;;;;;;22.25;35.71;101816.97;2091393;28;1053;-54
2022/05/19 01:10:59;;;;;;;;;;;;;;;22.26;35.57;101821.44;2091498;28;1067;-54
2022/05/19 01:11:59;;;;;;;;;;;;;;;22.26;35.71;101821.44;2091493;28;842;-54
2022/05/19 01:12:59;;;;;;;;;;;;;;;22.26;36.42;101820.53;2091268;28;867;-54
2022/05/19 01:13:59;;;;;;;;;;;;;;;22.26;36.16;101818.75;2091464;28;961;-54
2022/05/19 01:15:00;;;;;;;;;;;;;;;22.27;36.09;101811.50;2091405;28;823;-54
2022/05/19 01:16:02;;;;;;;;;;;;;;;22.26;35.63;101816.03;2091471;28;862;-54
2022/05/19 01:17:05;;;;;;;;;;;;;;;22.27;36.14;101811.50;2091161;28;1918;-54
2022/05/19 01:18:05;;;;;;;;;;;;;;;22.26;35.77;101809.72;2091473;28;870;-54
2022/05/19 01:19:12;;;;;;;;;;;;;;;22.26;35.88;101815.13;2091456;28;913;-54
2022/05/19 01:20:20;;;;;;;;;;;;;;;22.25;36.13;101813.34;2091450;28;981;-54
2022/05/19 01:21:21;;;;;;;;;;;;;;;22.24;35.82;101804.41;2091464;28;968;-56
2022/05/19 01:22:21;;;;;;;;;;;;;;;22.23;36.08;101799.91;2091397;28;973;-54
2022/05/19 01:23:40;;;;;;;;;;;;;;;22.23;35.75;101802.63;2091414;28;795;-55
2022/05/19 01:24:43;;;;;;;;;;;;;;;22.23;36.48;101804.41;2091426;28;985;-54
2022/05/19 01:26:16;;;;;;;;;;;;;;;22.23;35.96;101804.41;2091357;28;874;-54
2022/05/19 01:27:16;;;;;;;;;;;;;;;22.24;35.62;101806.19;2074128;28;1093;-54
2022/05/19 01:28:17;;;;;;;;;;;;;;;22.24;35.84;101807.09;2074102;28;969;-54
2022/05/19 01:29:18;;;;;;;;;;;;;;;22.24;36.15;101807.09;2074165;28;839;-54
2022/05/19 01:30:19;;;;;;;;;;;;;;;22.25;35.76;101814.25;2065801;28;1207;-55
2022/05/19 01:31:37;;;;;;;;;;;;;;;22.24;35.72;101801.69;2065932;28;981;-54
2022/05/19 01:32:37;;;;;;;;;;;;;;;22.24;36.53;101801.69;2074135;28;835;-54
2022/05/19 01:33:37;;;;;;;;;;;;;;;22.24;35.85;101793.59;2074102;28;901;-54
2022/05/19 01:34:38;;;;;;;;;;;;;;;22.24;35.88;101796.28;2074018;28;1071;-55
2022/05/19 01:35:38;;;;;;;;;;;;;;;22.24;35.78;101799.00;2074062;28;918;-54
2022/05/19 01:36:38;;;;;;;;;;;;;;;22.25;35.79;101799.88;2074096;28;878;-54
2022/05/19 01:37:38;;;;;;;;;;;;;;;22.25;35.90;101798.06;2073982;28;1969;-54
2022/05/19 01:38:38;;;;;;;;;;;;;;;22.24;36.43;101795.41;2074076;28;965;-54
2022/05/19 01:39:39;;;;;;;;;;;;;;;22.24;35.59;101790.00;2074070;28;961;-54
2022/05/19 01:40:57;;;;;;;;;;;;;;;22.24;35.84;101792.69;2074073;28;808;-54
2022/05/19 01:42:10;;;;;;;;;;;;;;;22.23;36.35;101793.63;2074105;28;891;-54
2022/05/19 01:43:19;;;;;;;;;;;;;;;22.22;36.07;101790.03;2074111;28;811;-55
2022/05/19 01:44:28;;;;;;;;;;;;;;;22.22;35.79;101792.75;2074042;28;938;-54
2022/05/19 01:45:47;;;;;;;;;;;;;;;22.21;35.87;101785.56;2074061;28;796;-54
2022/05/19 01:46:51;;;;;;;;;;;;;;;22.21;36.06;101772.09;2074046;28;994;-54
2022/05/19 01:48:00;;;;;;;;;;;;;;;22.21;36.00;101778.34;2073984;28;910;-54
2022/05/19 01:49:09;;;;;;;;;;;;;;;22.22;36.61;101784.66;2074124;28;696;-54
2022/05/19 01:50:27;;;;;;;;;;;;;;;22.21;35.80;101783.75;2074063;28;854;-54
2022/05/19 01:51:33;;;;;;;;;;;;;;;22.20;35.78;101787.38;2074076;28;886;-54
2022/05/19 01:52:45;;;;;;;;;;;;;;;22.22;36.51;101790.03;2074048;28;811;-54
2022/05/19 01:53:45;;;;;;;;;;;;;;;22.23;35.68;101782.81;2073959;28;802;-54
2022/05/19 01:54:51;;;;;;;;;;;;;;;22.23;35.93;101790.91;2074051;28;835;-56
2022/05/19 01:56:10;;;;;;;;;;;;;;;22.23;35.83;101793.63;2074017;28;1010;-54
2022/05/19 01:57:21;;;;;;;;;;;;;;;22.22;36.00;101792.75;2073889;28;1890;-54
2022/05/19 01:58:27;;;;;;;;;;;;;;;22.21;36.26;101781.06;2074014;28;1001;-54
2022/05/19 01:59:27;;;;;;;;;;;;;;;22.23;36.65;101791.81;2073961;28;1052;-54
2022/05/19 02:00:28;;;;;;;;;;;;;;;22.23;36.65;101793.63;2073985;28;866;-54
2022/05/19 02:01:28;;;;;;;;;;;;;;;22.22;35.72;101787.34;2074001;28;772;-54
2022/05/19 02:02:41;;;;;;;;;;;;;;;22.23;36.20;101789.13;2074004;28;783;-54
2022/05/19 02:03:50;;;;;;;;;;;;;;;22.23;35.85;101789.13;2084514;28;1078;-54
2022/05/19 02:05:13;;;;;;;;;;;;;;;22.22;35.88;101784.66;2091261;28;989;-55
2022/05/19 02:06:17;;;;;;;;;;;;;;;22.21;35.73;101783.75;2091272;28;973;-54
2022/05/19 02:07:18;;;;;;;;;;;;;;;22.21;36.27;101780.19;2091251;28;992;-54
2022/05/19 02:08:22;;;;;;;;;;;;;;;22.19;36.01;101782.03;2091223;28;925;-54
2022/05/19 02:09:25;;;;;;;;;;;;;;;22.18;36.00;101774.84;2091271;28;1192;-54
2022/05/19 02:10:27;;;;;;;;;;;;;;;22.18;36.11;101777.56;2091183;28;1366;-54
2022/05/19 02:11:29;;;;;;;;;;;;;;;22.18;36.68;101774.84;2091238;28;688;-54
2022/05/19 02:12:32;;;;;;;;;;;;;;;22.18;35.97;101777.56;2091255;28;815;-55
2022/05/19 02:13:33;;;;;;;;;;;;;;;22.17;36.03;101779.34;2091200;28;846;-55
2022/05/19 02:14:35;;;;;;;;;;;;;;;22.18;35.97;101780.25;2091198;28;858;-54
2022/05/19 02:15:37;;;;;;;;;;;;;;;22.18;36.28;101775.72;2091289;28;952;-54
2022/05/19 02:16:38;;;;;;;;;;;;;;;22.19;35.94;101776.63;2091051;28;1391;-54
2022/05/19 02:17:38;;;;;;;;;;;;;;;22.19;36.07;101779.34;2091184;28;1975;-54
2022/05/19 02:18:38;;;;;;;;;;;;;;;22.19;36.36;101771.22;2091190;28;819;-54
2022/05/19 02:19:40;;;;;;;;;;;;;;;22.19;35.88;101776.63;2091236;28;819;-54
2022/05/19 02:20:42;;;;;;;;;;;;;;;22.18;35.66;101773.03;2091255;28;878;-54
2022/05/19 02:21:44;;;;;;;;;;;;;;;22.19;35.84;101777.50;2091273;28;799;-54
2022/05/19 02:22:44;;;;;;;;;;;;;;;22.19;35.82;101777.50;2091227;28;835;-54
2022/05/19 02:23:45;;;;;;;;;;;;;;;22.19;35.81;101782.91;2091164;28;965;-54
2022/05/19 02:24:57;;;;;;;;;;;;;;;22.19;36.31;101782.91;2092016;28;989;-54
2022/05/19 02:25:57;;;;;;;;;;;;;;;22.21;36.00;101782.88;2092745;28;852;-54
2022/05/19 02:26:57;;;;;;;;;;;;;;;22.19;36.22;101784.72;2092687;28;925;-55
2022/05/19 02:28:09;;;;;;;;;;;;;;;22.18;36.06;101781.13;2092739;28;974;-54
2022/05/19 02:29:12;;;;;;;;;;;;;;;22.19;36.16;101779.34;2092640;28;981;-55
2022/05/19 02:30:18;;;;;;;;;;;;;;;22.19;36.64;101782.03;2092650;28;787;-54
2022/05/19 02:31:18;;;;;;;;;;;;;;;22.18;35.85;101775.72;2092704;28;818;-54
2022/05/19 02:32:20;;;;;;;;;;;;;;;22.19;35.82;101779.34;2092686;28;854;-54
2022/05/19 02:33:21;;;;;;;;;;;;;;;22.20;36.69;101784.69;2092656;28;807;-54
2022/05/19 02:34:21;;;;;;;;;;;;;;;22.19;36.44;101785.59;2092628;28;878;-55
2022/05/19 02:35:22;;;;;;;;;;;;;;;22.18;36.58;101786.53;2092616;28;863;-54
2022/05/19 02:36:22;;;;;;;;;;;;;;;22.19;36.64;101787.44;2092616;28;778;-54
2022/05/19 02:37:23;;;;;;;;;;;;;;;22.19;35.96;101787.44;2092495;28;1890;-55
2022/05/19 02:38:23;;;;;;;;;;;;;;;22.19;35.94;101790.13;2092675;28;1174;-54
2022/05/19 02:39:23;;;;;;;;;;;;;;;22.18;36.61;101775.72;2092627;28;1396;-54
2022/05/19 02:40:25;;;;;;;;;;;;;;;22.18;36.58;101781.13;2092597;28;747;-54
2022/05/19 02:41:25;;;;;;;;;;;;;;;22.19;36.52;101773.94;2092599;28;825;-54
2022/05/19 02:42:25;;;;;;;;;;;;;;;22.16;36.79;101765.91;2092631;28;767;-54
2022/05/19 02:43:25;;;;;;;;;;;;;;;22.19;36.62;101768.53;2092549;28;883;-54
2022/05/19 02:44:26;;;;;;;;;;;;;;;22.18;36.70;101764.94;2092553;28;771;-55
2022/05/19 02:45:26;;;;;;;;;;;;;;;22.19;36.43;101763.13;2092550;28;992;-54
2022/05/19 02:46:26;;;;;;;;;;;;;;;22.19;36.31;101764.00;2092508;28;1517;-54
2022/05/19 02:47:27;;;;;;;;;;;;;;;22.19;35.75;101769.41;2091897;28;1045;-54
2022/05/19 02:48:27;;;;;;;;;;;;;;;22.20;35.85;101773.00;2091959;28;984;-54
2022/05/19 02:49:27;;;;;;;;;;;;;;;22.20;36.74;101765.78;2092545;28;909;-54
2022/05/19 02:50:28;;;;;;;;;;;;;;;22.19;36.13;101760.44;2092520;28;791;-54
2022/05/19 02:51:30;;;;;;;;;;;;;;;22.19;36.07;101763.13;2092533;28;1117;-54
2022/05/19 02:52:30;;;;;;;;;;;;;;;22.18;35.78;101762.22;2092523;28;862;-55
2022/05/19 02:53:31;;;;;;;;;;;;;;;22.19;35.88;101761.31;2092474;28;881;-56
2022/05/19 02:54:31;;;;;;;;;;;;;;;22.18;36.22;101761.38;2092469;28;905;-54
2022/05/19 02:55:32;;;;;;;;;;;;;;;22.17;36.39;101762.28;2092432;28;970;-54
2022/05/19 02:56:32;;;;;;;;;;;;;;;22.18;36.27;101764.94;2092446;28;984;-54
2022/05/19 02:57:32;;;;;;;;;;;;;;;22.19;36.43;101773.94;2092406;28;1898;-55
2022/05/19 02:58:32;;;;;;;;;;;;;;;22.18;35.96;101762.22;2092471;28;985;-54
2022/05/19 02:59:33;;;;;;;;;;;;;;;22.19;36.16;101765.84;2092440;28;822;-54
2022/05/19 03:00:33;;;;;;;;;;;;;;;22.19;35.87;101757.75;2092434;28;878;-54
2022/05/19 03:01:33;;;;;;;;;;;;;;;22.18;36.06;101759.53;2092435;28;890;-54
2022/05/19 03:02:34;;;;;;;;;;;;;;;22.19;36.09;101761.31;2092435;28;846;-54
2022/05/19 03:03:34;;;;;;;;;;;;;;;22.18;36.00;101754.13;2092391;28;1017;-54
2022/05/19 03:04:34;;;;;;;;;;;;;;;22.18;36.39;101759.53;2092421;28;709;-54
2022/05/19 03:05:35;;;;;;;;;;;;;;;22.18;35.95;101756.84;2092340;28;803;-54
2022/05/19 03:06:35;;;;;;;;;;;;;;;22.18;36.15;101756.84;2092419;28;926;-54
2022/05/19 03:07:35;;;;;;;;;;;;;;;22.18;36.40;101764.06;2092416;28;905;-54
2022/05/19 03:08:36;;;;;;;;;;;;;;;22.17;36.10;101755.06;2092411;28;1040;-54
2022/05/19 03:09:37;;;;;;;;;;;;;;;22.17;36.85;101763.16;2092375;28;870;-54
2022/05/19 03:10:39;;;;;;;;;;;;;;;22.17;36.15;101759.59;2092337;28;886;-54
2022/05/19 03:11:39;;;;;;;;;;;;;;;22.17;36.92;101751.50;2092143;28;2074;-54
2022/05/19 03:12:40;;;;;;;;;;;;;;;22.17;36.23;101762.28;2092314;28;831;-54
2022/05/19 03:13:40;;;;;;;;;;;;;;;22.18;36.35;101761.38;2092350;28;885;-54
2022/05/19 03:14:40;;;;;;;;;;;;;;;22.19;36.66;101763.13;2092300;28;1016;-55
2022/05/19 03:15:40;;;;;;;;;;;;;;;22.19;36.30;101760.44;2092278;28;775;-54
2022/05/19 03:16:41;;;;;;;;;;;;;;;22.18;36.13;101759.53;2092216;28;1271;-54
2022/05/19 03:17:42;;;;;;;;;;;;;;;22.18;36.17;101755.97;2092227;28;1971;-54
2022/05/19 03:18:42;;;;;;;;;;;;;;;22.17;37.04;101763.16;2092330;28;890;-54
2022/05/19 03:19:42;;;;;;;;;;;;;;;22.17;36.53;101760.47;2092259;28;989;-54
2022/05/19 03:20:42;;;;;;;;;;;;;;;22.17;36.06;101765.84;2092300;28;886;-54
2022/05/19 03:21:43;;;;;;;;;;;;;;;22.18;36.23;101753.28;2092239;28;839;-54
2022/05/19 03:22:43;;;;;;;;;;;;;;;22.18;36.14;101758.66;2092259;28;783;-54
2022/05/19 03:23:43;;;;;;;;;;;;;;;22.18;36.39;101762.22;2092264;28;822;-54
2022/05/19 03:24:44;;;;;;;;;;;;;;;22.18;36.82;101755.97;2092237;28;850;-54
2022/05/19 03:25:44;;;;;;;;;;;;;;;22.17;36.36;101759.59;2092285;28;914;-54
2022/05/19 03:26:44;;;;;;;;;;;;;;;22.18;36.92;101764.06;2092218;28;993;-54
2022/05/19 03:27:44;;;;;;;;;;;;;;;22.17;36.17;101763.16;2091569;28;701;-54
2022/05/19 03:28:44;;;;;;;;;;;;;;;22.17;36.51;101765.00;2091696;28;915;-54
2022/05/19 03:29:45;;;;;;;;;;;;;;;22.17;36.75;101763.16;2092224;28;874;-54
2022/05/19 03:30:46;;;;;;;;;;;;;;;22.17;36.30;101756.91;2092234;28;999;-54
2022/05/19 03:31:46;;;;;;;;;;;;;;;22.18;36.45;101764.94;2092164;28;988;-54
2022/05/19 03:32:46;;;;;;;;;;;;;;;22.18;36.46;101769.47;2092221;28;898;-54
2022/05/19 03:33:46;;;;;;;;;;;;;;;22.17;36.73;101768.56;2092131;28;847;-54
2022/05/19 03:34:46;;;;;;;;;;;;;;;22.17;36.21;101768.56;2092126;28;851;-54
2022/05/19 03:35:55;;;;;;;;;;;;;;;22.18;37.06;101770.34;2092085;28;982;-54
2022/05/19 03:36:55;;;;;;;;;;;;;;;22.17;36.54;101770.38;2092121;28;1957;-54
2022/05/19 03:37:55;;;;;;;;;;;;;;;22.17;36.45;101767.69;2092147;28;1043;-55
2022/05/19 03:38:55;;;;;;;;;;;;;;;22.16;36.25;101761.38;2092192;28;787;-54
2022/05/19 03:39:56;;;;;;;;;;;;;;;22.17;36.92;101765.84;2092181;28;831;-54
2022/05/19 03:40:56;;;;;;;;;;;;;;;22.17;36.31;101765.00;2092103;28;779;-54
2022/05/19 03:41:56;;;;;;;;;;;;;;;22.17;36.94;101763.16;2092109;28;893;-54
2022/05/19 03:42:56;;;;;;;;;;;;;;;22.17;36.88;101762.28;2092148;28;815;-54
2022/05/19 03:43:57;;;;;;;;;;;;;;;22.17;36.99;101760.47;2092127;28;965;-55
2022/05/19 03:44:57;;;;;;;;;;;;;;;22.17;36.50;101765.00;2092075;28;768;-55
2022/05/19 03:45:57;;;;;;;;;;;;;;;22.17;36.29;101765.00;2092033;28;814;-54
2022/05/19 03:46:57;;;;;;;;;;;;;;;22.16;36.44;101764.09;2083223;28;954;-54
2022/05/19 03:47:57;;;;;;;;;;;;;;;22.16;36.33;101763.22;2083291;28;760;-54
2022/05/19 03:48:57;;;;;;;;;;;;;;;22.16;36.71;101763.22;2091916;28;763;-54
2022/05/19 03:49:58;;;;;;;;;;;;;;;22.16;36.79;101771.31;2092042;28;985;-54
2022/05/19 03:50:59;;;;;;;;;;;;;;;22.16;37.05;101769.47;2092016;28;827;-54
2022/05/19 03:51:59;;;;;;;;;;;;;;;22.16;36.33;101774.00;2092077;28;985;-54
2022/05/19 03:52:59;;;;;;;;;;;;;;;22.16;36.38;101771.31;2092013;28;854;-54
2022/05/19 03:54:00;;;;;;;;;;;;;;;22.16;36.31;101768.63;2092031;28;1266;-54
2022/05/19 03:55:00;;;;;;;;;;;;;;;22.16;36.59;101774.88;2091990;28;878;-54
2022/05/19 03:56:00;;;;;;;;;;;;;;;22.16;36.36;101774.00;2091961;28;904;-54
2022/05/19 03:57:00;;;;;;;;;;;;;;;22.16;36.94;101771.31;2091957;28;1947;-54
2022/05/19 03:58:00;;;;;;;;;;;;;;;22.15;36.51;101762.31;2091956;28;890;-55
2022/05/19 03:59:00;;;;;;;;;;;;;;;22.16;36.48;101771.31;2091941;28;992;-54
2022/05/19 04:00:01;;;;;;;;;;;;;;;22.15;36.40;101765.00;2091969;28;803;-54
2022/05/19 04:01:01;;;;;;;;;;;;;;;22.15;36.51;101774.94;2091945;28;854;-54
2022/05/19 04:02:02;;;;;;;;;;;;;;;23.17;34.63;101772.16;2091931;28;830;-55
2022/05/19 04:03:03;;;;;;;;;;;;;;;24.05;33.54;101763.16;2092018;28;839;-54
2022/05/19 04:04:03;;;;;;;;;;;;;;;24.58;32.83;101759.50;2091970;28;902;-54
2022/05/19 04:05:04;;;;;;;;;;;;;;;25.06;32.06;101764.13;2091894;28;1052;-54
2022/05/19 04:06:04;;;;;;;;;;;;;;;25.38;31.33;101764.72;2091816;28;1097;-55
2022/05/19 04:07:04;;;;;;;;;;;;;;;25.71;30.58;101758.91;2091973;28;1036;-55
2022/05/19 04:08:04;;;;;;;;;;;;;;;25.99;30.42;101761.38;2091256;28;1001;-54
2022/05/19 04:09:05;;;;;;;;;;;;;;;26.31;29.88;101758.25;2091376;28;800;-54
2022/05/19 04:10:06;;;;;;;;;;;;;;;26.60;29.52;101761.50;2091913;28;850;-55
2022/05/19 04:11:06;;;;;;;;;;;;;;;26.92;28.83;101759.19;2091787;28;1263;-55
2022/05/19 04:12:07;;;;;;;;;;;;;;;27.07;28.24;101755.78;2091914;28;833;-54
2022/05/19 04:13:07;;;;;;;;;;;;;;;27.31;27.54;101757.41;2091857;28;1021;-55
2022/05/19 04:14:09;;;;;;;;;;;;;;;27.46;27.39;101758.47;2091887;28;1036;-55
2022/05/19 04:15:10;;;;;;;;;;;;;;;27.69;27.29;101742.88;2091843;28;783;-55
2022/05/19 04:16:10;;;;;;;;;;;;;;;27.93;26.75;101740.78;2091782;28;1223;-54
2022/05/19 04:17:10;;;;;;;;;;;;;;;28.06;26.85;101733.72;2091639;28;1993;-54
2022/05/19 04:18:10;;;;;;;;;;;;;;;28.13;26.82;101739.78;2091771;28;1044;-55
2022/05/19 04:19:11;;;;;;;;;;;;;;;28.28;26.30;101743.56;2091810;28;871;-56
2022/05/19 04:20:11;;;;;;;;;;;;;;;28.47;25.88;101748.91;2091768;28;1215;-54
2022/05/19 04:21:11;;;;;;;;;;;;;;;28.59;25.68;101743.75;2091774;28;843;-54
2022/05/19 04:22:11;;;;;;;;;;;;;;;28.70;25.83;101734.03;2091742;28;989;-54
2022/05/19 04:23:11;;;;;;;;;;;;;;;28.87;25.27;101739.56;2091776;28;926;-55
2022/05/19 04:24:12;;;;;;;;;;;;;;;28.98;25.14;101739.84;2091804;28;789;-55
2022/05/19 04:25:12;;;;;;;;;;;;;;;29.05;25.44;101749.44;2091748;28;985;-55
2022/05/19 04:26:13;;;;;;;;;;;;;;;29.24;25.24;101737.50;2091766;28;776;-55
2022/05/19 04:27:14;;;;;;;;;;;;;;;29.27;25.47;101738.19;2091739;28;859;-55
2022/05/19 04:28:14;;;;;;;;;;;;;;;29.44;24.48;101744.59;2091771;28;806;-55
2022/05/19 04:29:14;;;;;;;;;;;;;;;29.62;24.38;101733.59;2091814;28;988;-54
2022/05/19 04:30:14;;;;;;;;;;;;;;;29.62;24.82;101725.38;2091823;28;763;-55
2022/05/19 04:31:15;;;;;;;;;;;;;;;29.65;24.57;101741.59;2091729;28;1019;-55
2022/05/19 04:32:16;;;;;;;;;;;;;;;29.73;24.11;101739.31;2091738;28;847;-55
2022/05/19 04:33:16;;;;;;;;;;;;;;;29.75;24.46;101741.94;2091746;28;1116;-55
2022/05/19 04:34:16;;;;;;;;;;;;;;;29.94;23.94;101741.72;2091713;28;838;-54
2022/05/19 04:35:16;;;;;;;;;;;;;;;30.06;24.22;101738.28;2091595;28;1024;-55
2022/05/19 04:36:16;;;;;;;;;;;;;;;30.14;23.66;101732.34;2091733;28;877;-54
2022/05/19 04:37:16;;;;;;;;;;;;;;;30.22;23.95;101729.16;2091499;28;1897;-54
2022/05/19 04:38:17;;;;;;;;;;;;;;;30.27;23.76;101737.97;2091702;28;760;-54
2022/05/19 04:39:17;;;;;;;;;;;;;;;30.27;24.04;101738.81;2091655;28;976;-54
2022/05/19 04:40:18;;;;;;;;;;;;;;;30.36;23.82;101737.34;2091681;28;775;-54
2022/05/19 04:41:18;;;;;;;;;;;;;;;30.45;23.34;101734.06;2091600;28;1059;-55
2022/05/19 04:42:18;;;;;;;;;;;;;;;30.32;23.83;101747.63;2091591;28;1051;-54
2022/05/19 04:43:22;;;;;;;;;;;;;;;30.39;23.94;101736.31;2091643;28;771;-54
2022/05/19 04:44:22;;;;;;;;;;;;;;;30.29;24.12;101736.88;2091646;28;731;-54
2022/05/19 04:45:22;;;;;;;;;;;;;;;30.34;23.81;101732.97;2091613;28;765;-55
2022/05/19 04:46:23;;;;;;;;;;;;;;;30.41;23.77;101743.44;2090989;28;1016;-54
2022/05/19 04:47:23;;;;;;;;;;;;;;;30.63;23.53;101741.25;2090654;28;1131;-54
2022/05/19 04:48:24;;;;;;;;;;;;;;;30.65;23.64;101742.03;2091684;28;870;-55
2022/05/19 04:49:24;;;;;;;;;;;;;;;30.83;23.54;101740.00;2091595;28;1047;-55
2022/05/19 04:50:24;;;;;;;;;;;;;;;30.78;23.49;101745.75;2091691;28;952;-54
2022/05/19 04:51:24;;;;;;;;;;;;;;;30.93;23.36;101741.16;2091496;28;996;-54
2022/05/19 04:52:24;;;;;;;;;;;;;;;30.92;23.07;101742.13;2091551;28;985;-55
2022/05/19 04:53:25;;;;;;;;;;;;;;;31.02;23.35;101742.44;2091623;28;838;-54
2022/05/19 04:54:26;;;;;;;;;;;;;;;30.97;23.07;101748.19;2091481;28;917;-55
2022/05/19 04:55:26;;;;;;;;;;;;;;;31.19;22.75;101727.69;2091553;28;1071;-54
2022/05/19 04:56:27;;;;;;;;;;;;;;;31.42;22.82;101733.50;2091609;28;850;-55
2022/05/19 04:57:27;;;;;;;;;;;;;;;31.28;22.97;101723.44;2091500;28;1899;-55
2022/05/19 04:58:27;;;;;;;;;;;;;;;30.97;23.39;101730.91;2091528;28;980;-55
2022/05/19 04:59:27;;;;;;;;;;;;;;;30.94;23.62;101736.56;2091548;28;932;-54
2022/05/19 05:00:27;;;;;;;;;;;;;;;30.64;24.02;101737.53;2091547;28;969;-54
2022/05/19 05:01:27;;;;;;;;;;;;;;;30.66;23.62;101732.84;2091539;28;866;-54
2022/05/19 05:02:28;;;;;;;;;;;;;;;30.68;23.99;101737.25;2091481;28;889;-55
2022/05/19 05:03:28;;;;;;;;;;;;;;;31.08;22.54;101733.84;2091535;28;1035;-54
2022/05/19 05:04:28;;;;;;;;;;;;;;;31.21;23.06;101742.16;2091470;28;822;-54
2022/05/19 05:05:28;;;;;;;;;;;;;;;31.31;22.85;101742.41;2091591;28;791;-54
2022/05/19 05:06:29;;;;;;;;;;;;;;;30.91;23.07;101737.66;2091479;28;887;-54
2022/05/19 05:07:30;;;;;;;;;;;;;;;30.84;23.48;101737.16;2091484;28;862;-55
2022/05/19 05:08:30;;;;;;;;;;;;;;;31.23;23.36;101739.28;2091489;28;980;-54
2022/05/19 05:09:30;;;;;;;;;;;;;;;30.99;23.38;101745.38;2091503;28;968;-55
2022/05/19 05:10:30;;;;;;;;;;;;;;;31.12;23.09;101726.28;2091493;28;889;-54
2022/05/19 05:11:31;;;;;;;;;;;;;;;31.42;22.52;101733.50;2091440;28;1052;-55
2022/05/19 05:12:31;;;;;;;;;;;;;;;31.13;23.11;101737.16;2091475;28;834;-55
2022/05/19 05:13:31;;;;;;;;;;;;;;;31.49;22.85;101733.00;2091502;28;850;-56
2022/05/19 05:14:31;;;;;;;;;;;;;;;31.64;22.55;101735.69;2091450;28;1032;-54
2022/05/19 05:15:31;;;;;;;;;;;;;;;31.78;22.40;101719.25;2091409;28;866;-55
2022/05/19 05:16:32;;;;;;;;;;;;;;;31.86;21.88;101723.28;2091250;28;1229;-54
2022/05/19 05:17:32;;;;;;;;;;;;;;;31.74;22.71;101725.91;2091420;28;1976;-55
2022/05/19 05:18:32;;;;;;;;;;;;;;;31.28;22.64;101723.44;2091507;28;859;-54
2022/05/19 05:19:32;;;;;;;;;;;;;;;31.55;22.32;101728.09;2091441;28;997;-54
2022/05/19 05:20:33;;;;;;;;;;;;;;;31.50;22.31;101723.78;2091460;28;977;-55
2022/05/19 05:21:33;;;;;;;;;;;;;;;31.43;22.49;101727.06;2091423;28;858;-54
2022/05/19 05:22:36;;;;;;;;;;;;;;;31.54;22.58;101729.06;2091460;28;842;-54
2022/05/19 05:23:37;;;;;;;;;;;;;;;31.74;22.34;101723.16;2091502;28;800;-54
2022/05/19 05:24:37;;;;;;;;;;;;;;;31.88;22.20;101724.06;2091398;28;981;-55
2022/05/19 05:25:37;;;;;;;;;;;;;;;31.87;21.77;101727.78;2091414;28;973;-55